KGGP

Logansport / Cass County Airport

Logansport, Indiana, USA
METAR KGGP 210355Z AUTO 10005KT 10SM SCT031 BKN038 21/20 A2983 RMK AO2 P0001
Observed Flight Rules
Aug-21 @ 03:55 UTC (16 minutes ago) Visual Flight Rules
Wind Visibility Clouds
100° at 5 knots 10 miles
  • Scattered at 3,100' AGL
  • Broken at 3,800' AGL
Temperatures Readings Precipitation
Current 21°C / 70°F
Dewpoint 20°C / 68°F
Humidity 94%
Altimeter 29.83" Hg
Pressure 1010 hPa
Elevation 225
Current Rain 0.01
METAR KGGP 210355Z AUTO 10005KT 10SM SCT031 BKN038 21/20 A2983 RMK AO2 P0001
Observed Flight Rules
Aug-21 @ 03:55 UTC
(16 minutes ago)
VFR
Wind Visibility
100° at 5 knots 10 miles
Clouds
  • Scattered at 3,100' AGL
  • Broken at 3,800' AGL
Temperature Dewpoint
21°C / 70°F 20°C / 68°F
Humidity Altimeter Pressure
94% 29.83" Hg 1010 hPa
Current Rain
0.01